Time;durP1;ratioP1;P1;durP2;ratioP2;P2;SDS_P1;SDS_P2;PMS_P1;PMS_P2;Temp;Humidity;BMP_temperature;BMP_pressure;BME280_temperature;BME280_humidity;BME280_pressure;Samples;Min_cycle;Max_cycle;Signal;HPM_P1;HPM_P2
2022/11/25 00:00:08;;;;;;;8.57;4.03;;;7.70;92.70;;;;;;5027893;28;20984;-67
2022/11/25 00:02:36;;;;;;;9.18;3.50;;;7.70;92.70;;;;;;5024057;28;20497;-65
2022/11/25 00:05:03;;;;;;;13.13;4.30;;;7.70;92.90;;;;;;5023015;28;20438;-66
2022/11/25 00:07:30;;;;;;;8.63;4.00;;;7.70;92.80;;;;;;5028603;28;20431;-64
2022/11/25 00:09:56;;;;;;;7.35;3.50;;;7.60;92.90;;;;;;5014654;28;20419;-66
2022/11/25 00:12:23;;;;;;;7.15;3.60;;;7.60;93.10;;;;;;5027047;28;20435;-65
2022/11/25 00:14:50;;;;;;;7.00;3.72;;;7.60;93.10;;;;;;5027847;28;20417;-63
2022/11/25 00:17:17;;;;;;;9.17;3.83;;;7.50;93.10;;;;;;5023779;28;20431;-65
2022/11/25 00:19:47;;;;;;;7.88;3.72;;;7.50;93.30;;;;;;5025557;28;20438;-65
2022/11/25 00:22:14;;;;;;;7.18;3.88;;;7.50;93.40;;;;;;5025763;28;20423;-64
2022/11/25 00:24:41;;;;;;;6.37;3.83;;;7.40;93.60;;;;;;5027369;28;20450;-63
2022/11/25 00:27:08;;;;;;;10.40;3.80;;;7.40;93.80;;;;;;5028287;28;20430;-65
2022/11/25 00:29:35;;;;;;;9.85;4.30;;;7.30;93.90;;;;;;5028759;28;20907;-64
2022/11/25 00:32:01;;;;;;;9.07;3.83;;;7.30;94.00;;;;;;5028031;28;20435;-64
2022/11/25 00:34:28;;;;;;;11.57;4.30;;;7.30;94.10;;;;;;5028287;28;20489;-63
2022/11/25 00:36:56;;;;;;;8.43;4.17;;;7.20;94.20;;;;;;5027323;28;20801;-65
2022/11/25 00:39:25;;;;;;;6.85;3.60;;;7.20;94.40;;;;;;5025090;28;20441;-64
2022/11/25 00:44:37;;;;;;;8.82;4.05;;;7.30;94.50;;;;;;5026506;28;21151;-66
2022/11/25 00:47:06;;;;;;;6.50;3.63;;;7.30;94.60;;;;;;5026317;28;20937;-66
2022/11/25 00:49:33;;;;;;;9.87;3.63;;;7.20;94.60;;;;;;5025738;28;20446;-66
2022/11/25 00:52:01;;;;;;;8.63;4.45;;;7.30;94.80;;;;;;5023067;28;20434;-67
2022/11/25 00:54:28;;;;;;;7.80;3.83;;;7.30;94.80;;;;;;5028081;28;20423;-66
2022/11/25 00:56:55;;;;;;;7.60;4.40;;;7.30;94.80;;;;;;5021770;28;21039;-66
2022/11/25 00:59:22;;;;;;;8.23;3.70;;;7.30;94.90;;;;;;5021867;28;20422;-67
2022/11/25 01:01:49;;;;;;;8.93;3.85;;;7.30;94.90;;;;;;5023908;28;20443;-66
2022/11/25 01:04:16;;;;;;;9.65;4.20;;;7.40;94.90;;;;;;5027841;28;20415;-66
2022/11/25 01:06:43;;;;;;;7.93;3.80;;;7.40;94.90;;;;;;5026327;28;20431;-67
2022/11/25 01:09:12;;;;;;;11.50;4.57;;;7.40;95.00;;;;;;5028194;28;20419;-66
2022/11/25 01:11:40;;;;;;;7.65;4.20;;;7.50;94.90;;;;;;5026545;28;20442;-65
2022/11/25 01:14:07;;;;;;;8.90;4.30;;;7.50;94.70;;;;;;5027512;28;20430;-66
2022/11/25 01:16:34;;;;;;;5.80;4.07;;;7.60;94.50;;;;;;5023679;28;20431;-67
2022/11/25 01:19:01;;;;;;;9.60;4.50;;;7.70;94.40;;;;;;5026257;28;20505;-66
2022/11/25 01:21:31;;;;;;;9.40;4.10;;;7.70;94.50;;;;;;5033521;22;20542;-68
2022/11/25 01:24:00;;;;;;;10.25;4.30;;;7.70;94.50;;;;;;5016453;28;20437;-69
2022/11/25 01:26:29;;;;;;;7.85;4.25;;;7.70;94.40;;;;;;5028214;28;20932;-69
2022/11/25 01:28:57;;;;;;;8.82;4.13;;;7.70;94.50;;;;;;5011005;28;20428;-68
2022/11/25 01:31:26;;;;;;;9.73;4.50;;;7.70;94.50;;;;;;5005439;28;20829;-68
2022/11/25 01:33:55;;;;;;;7.30;4.40;;;7.70;94.70;;;;;;4997573;28;20430;-68
2022/11/25 01:36:22;;;;;;;8.00;4.10;;;7.70;94.70;;;;;;4997613;28;20488;-69
2022/11/25 01:38:50;;;;;;;6.28;3.97;;;7.70;94.70;;;;;;5011237;28;20511;-68
2022/11/25 01:41:17;;;;;;;8.90;4.20;;;7.70;94.70;;;;;;4994440;28;20453;-68
2022/11/25 01:44:16;;;;;;;7.27;3.90;;;7.70;94.80;;;;;;4995922;28;20984;-68
2022/11/25 01:47:10;;;;;;;6.97;3.85;;;7.70;94.90;;;;;;4995990;28;20512;-68
2022/11/25 01:49:42;;;;;;;10.00;4.45;;;7.70;95.00;;;;;;5000814;28;20583;-70
2022/11/25 01:52:16;;;;;;;7.90;4.40;;;7.60;95.00;;;;;;5009327;28;20506;-68
2022/11/25 01:54:49;;;;;;;8.35;3.90;;;7.60;95.10;;;;;;4993506;28;20962;-68
2022/11/25 01:57:20;;;;;;;7.70;3.80;;;7.70;95.10;;;;;;4996843;28;20474;-68
2022/11/25 01:59:51;;;;;;;8.15;4.00;;;7.70;95.10;;;;;;4993120;28;20430;-68
2022/11/25 02:02:21;;;;;;;9.02;4.65;;;7.70;95.20;;;;;;4995089;28;20440;-68
2022/11/25 02:04:49;;;;;;;8.97;4.00;;;7.70;95.30;;;;;;5004251;28;20791;-68
2022/11/25 02:07:22;;;;;;;8.55;4.13;;;7.70;95.30;;;;;;4995656;28;20442;-69
2022/11/25 02:09:49;;;;;;;9.67;3.80;;;7.70;95.30;;;;;;4999883;28;20436;-68
2022/11/25 02:12:18;;;;;;;10.48;4.30;;;7.80;95.30;;;;;;5015008;28;20435;-69
2022/11/25 02:14:46;;;;;;;10.38;4.55;;;7.80;95.30;;;;;;5008643;28;20441;-69
2022/11/25 02:17:13;;;;;;;7.87;4.43;;;7.80;95.40;;;;;;4994352;28;20517;-68
2022/11/25 02:19:55;;;;;;;11.10;4.32;;;7.80;95.30;;;;;;5003148;28;20451;-68
2022/11/25 02:22:26;;;;;;;8.60;4.00;;;7.90;95.20;;;;;;4997946;28;20482;-69
2022/11/25 02:25:00;;;;;;;7.10;4.90;;;7.90;95.20;;;;;;5013810;28;20449;-69
2022/11/25 02:27:29;;;;;;;8.85;4.10;;;7.90;95.40;;;;;;5006297;28;20426;-69
2022/11/25 02:29:55;;;;;;;8.43;4.25;;;7.90;95.30;;;;;;4989561;28;20436;-69
2022/11/25 02:32:23;;;;;;;7.15;3.85;;;7.90;95.20;;;;;;4995148;28;20436;-68
2022/11/25 02:34:50;;;;;;;9.25;4.20;;;8.00;95.10;;;;;;5002355;28;20502;-68
2022/11/25 02:37:19;;;;;;;9.43;4.07;;;8.00;95.10;;;;;;4994288;28;20439;-68
2022/11/25 02:39:48;;;;;;;7.40;3.80;;;8.10;95.10;;;;;;5005937;28;20943;-68
2022/11/25 02:42:16;;;;;;;8.90;4.25;;;8.10;95.10;;;;;;4995722;28;20414;-68
2022/11/25 02:44:45;;;;;;;9.77;4.40;;;8.10;95.10;;;;;;4995650;28;20426;-68
2022/11/25 02:47:11;;;;;;;7.32;4.20;;;8.10;94.90;;;;;;5009335;28;20443;-69
2022/11/25 02:49:38;;;;;;;8.05;4.00;;;8.10;95.00;;;;;;5001754;28;20530;-68
2022/11/25 02:52:05;;;;;;;8.52;4.00;;;8.10;95.00;;;;;;5014555;28;20897;-68
2022/11/25 02:54:31;;;;;;;8.30;3.90;;;8.10;95.00;;;;;;4988740;28;20422;-68
2022/11/25 02:56:58;;;;;;;7.13;4.23;;;8.10;95.10;;;;;;5016069;28;20426;-68
2022/11/25 02:59:25;;;;;;;8.57;4.00;;;8.10;95.10;;;;;;4992577;28;20432;-69
2022/11/25 03:01:53;;;;;;;8.25;3.80;;;8.10;95.30;;;;;;5002336;28;20443;-68
2022/11/25 03:04:20;;;;;;;7.93;3.90;;;8.10;95.80;;;;;;5005965;28;21012;-68
2022/11/25 03:06:46;;;;;;;7.55;3.80;;;8.20;95.20;;;;;;5011192;28;20427;-69
2022/11/25 03:09:13;;;;;;;11.63;4.63;;;8.20;95.20;;;;;;5005823;28;20422;-68
2022/11/25 03:14:24;;;;;;;8.83;4.57;;;8.20;95.10;;;;;;4987820;28;21035;-68
2022/11/25 03:16:52;;;;;;;8.18;3.67;;;8.20;95.10;;;;;;5000734;28;20437;-68
2022/11/25 03:19:19;;;;;;;8.35;4.43;;;8.20;95.10;;;;;;5003514;28;20784;-69
2022/11/25 03:21:46;;;;;;;8.55;3.75;;;8.20;95.30;;;;;;5002396;28;20940;-68
2022/11/25 03:24:12;;;;;;;9.85;4.55;;;8.30;95.30;;;;;;5000195;28;20442;-70
2022/11/25 03:26:39;;;;;;;9.27;4.10;;;8.30;95.20;;;;;;5001944;28;20491;-67
2022/11/25 03:29:06;;;;;;;8.30;4.00;;;8.40;95.10;;;;;;5019408;28;20436;-69
2022/11/25 03:31:33;;;;;;;6.45;3.53;;;8.40;94.90;;;;;;5017854;28;20502;-71
2022/11/25 03:34:01;;;;;;;9.60;3.80;;;8.50;94.70;;;;;;5016574;28;20434;-68
2022/11/25 03:36:28;;;;;;;7.93;3.73;;;8.50;94.70;;;;;;5011610;28;20517;-69
2022/11/25 03:38:54;;;;;;;7.70;3.30;;;8.60;94.50;;;;;;5002408;28;20476;-68
2022/11/25 03:41:21;;;;;;;8.38;4.13;;;8.60;94.40;;;;;;5004487;28;20445;-68
2022/11/25 03:43:48;;;;;;;7.20;3.53;;;8.70;94.10;;;;;;5002946;28;20448;-69
2022/11/25 03:46:15;;;;;;;7.20;3.75;;;8.80;94.00;;;;;;4996105;28;20480;-68
2022/11/25 03:48:41;;;;;;;8.55;4.00;;;8.80;94.00;;;;;;4999182;28;20444;-68
2022/11/25 03:51:09;;;;;;;6.90;4.23;;;8.80;93.90;;;;;;5005794;28;20549;-68
2022/11/25 03:53:36;;;;;;;8.38;4.30;;;8.80;93.80;;;;;;5003560;28;20584;-68
2022/11/25 03:56:03;;;;;;;8.50;3.40;;;8.80;93.70;;;;;;5009615;28;20432;-68
2022/11/25 03:58:30;;;;;;;9.53;4.40;;;8.80;93.80;;;;;;4998750;28;20445;-70
2022/11/25 04:01:00;;;;;;;9.00;3.72;;;8.80;93.60;;;;;;4998759;28;20953;-68
2022/11/25 04:03:26;;;;;;;7.20;3.50;;;8.90;93.50;;;;;;5000894;28;20464;-68
2022/11/25 04:05:53;;;;;;;7.97;3.65;;;8.90;93.60;;;;;;5002128;28;20783;-68
2022/11/25 04:08:21;;;;;;;7.70;4.03;;;8.90;93.50;;;;;;5002954;28;20448;-68
2022/11/25 04:10:49;;;;;;;8.00;3.55;;;8.90;93.50;;;;;;5003487;28;20455;-71
2022/11/25 04:13:15;;;;;;;7.70;3.28;;;8.80;93.60;;;;;;5011943;28;20890;-68
2022/11/25 04:15:45;;;;;;;7.18;3.30;;;8.80;93.80;;;;;;4998929;28;20504;-68
2022/11/25 04:18:11;;;;;;;5.30;3.40;;;8.80;94.00;;;;;;5004167;28;20430;-68
2022/11/25 04:20:38;;;;;;;7.50;3.70;;;8.80;93.90;;;;;;5004786;28;20501;-68
2022/11/25 04:23:06;;;;;;;7.20;3.83;;;8.80;94.10;;;;;;4995294;28;20558;-68
2022/11/25 04:25:34;;;;;;;9.10;4.00;;;8.70;94.10;;;;;;4999007;28;20452;-69
2022/11/25 04:28:01;;;;;;;8.35;3.92;;;8.70;94.30;;;;;;5007389;28;20468;-67
2022/11/25 04:30:28;;;;;;;8.93;3.50;;;8.70;94.30;;;;;;4999293;28;20884;-70
2022/11/25 04:32:54;;;;;;;9.77;3.50;;;8.70;94.40;;;;;;4999016;28;20439;-68
2022/11/25 04:35:21;;;;;;;7.78;4.35;;;8.70;94.60;;;;;;5001436;28;20448;-68
2022/11/25 04:37:48;;;;;;;7.72;3.70;;;8.60;94.60;;;;;;4999831;28;20453;-68
2022/11/25 04:40:15;;;;;;;6.95;3.65;;;8.70;94.60;;;;;;4999200;28;20496;-68
2022/11/25 04:42:43;;;;;;;5.55;3.58;;;8.70;94.90;;;;;;5008528;28;20493;-69
2022/11/25 04:45:14;;;;;;;7.75;4.20;;;8.60;95.10;;;;;;5002118;28;20428;-69
2022/11/25 04:47:41;;;;;;;9.15;3.90;;;8.60;95.60;;;;;;4998472;28;20781;-70
2022/11/25 04:50:12;;;;;;;9.70;4.15;;;8.60;95.90;;;;;;5011457;28;20441;-70
2022/11/25 04:52:39;;;;;;;8.80;4.43;;;8.50;96.20;;;;;;5004977;28;20440;-70
2022/11/25 04:55:07;;;;;;;6.80;4.45;;;8.50;96.40;;;;;;5008969;28;20503;-70
2022/11/25 04:57:34;;;;;;;7.28;3.92;;;8.40;96.80;;;;;;5004130;28;20444;-69
2022/11/25 05:00:01;;;;;;;9.40;4.20;;;8.40;97.00;;;;;;4999210;28;20436;-70
2022/11/25 05:02:28;;;;;;;8.95;4.68;;;8.30;97.10;;;;;;4999356;28;20782;-71
2022/11/25 05:04:56;;;;;;;6.72;4.20;;;8.20;97.50;;;;;;5008558;28;20438;-70
2022/11/25 05:07:26;;;;;;;7.82;4.30;;;8.20;97.80;;;;;;5000843;28;20449;-70
2022/11/25 05:09:52;;;;;;;8.82;4.40;;;8.20;98.20;;;;;;4999910;28;20524;-71
2022/11/25 05:12:21;;;;;;;8.68;4.50;;;8.20;98.30;;;;;;5009269;28;20438;-71
2022/11/25 05:14:48;;;;;;;9.73;4.30;;;8.20;98.50;;;;;;5014689;28;20469;-71
2022/11/25 05:17:18;;;;;;;8.63;4.25;;;8.20;98.60;;;;;;5000969;28;20429;-72
2022/11/25 05:19:45;;;;;;;7.50;4.75;;;8.20;98.70;;;;;;5000098;28;20444;-74
2022/11/25 05:22:13;;;;;;;9.18;4.70;;;8.20;98.90;;;;;;4996995;28;20440;-76
2022/11/25 05:24:40;;;;;;;11.40;4.75;;;8.20;99.10;;;;;;4995267;28;20501;-76
2022/11/25 05:27:07;;;;;;;7.13;4.30;;;8.10;99.20;;;;;;4997523;28;20441;-76
2022/11/25 05:29:34;;;;;;;9.65;5.20;;;8.10;99.60;;;;;;5004267;28;20439;-75
2022/11/25 05:32:01;;;;;;;9.32;4.90;;;8.00;99.80;;;;;;4994195;28;20517;-76
2022/11/25 05:34:29;;;;;;;8.93;4.60;;;8.00;99.90;;;;;;5002124;28;20420;-76
2022/11/25 05:36:56;;;;;;;9.52;4.80;;;8.00;99.90;;;;;;5004589;28;20447;-76
2022/11/25 05:39:22;;;;;;;10.05;5.32;;;8.00;99.90;;;;;;5015904;28;20417;-74
2022/11/25 05:41:50;;;;;;;8.07;4.90;;;8.00;99.90;;;;;;5015355;28;20502;-74
2022/11/25 05:44:17;;;;;;;11.75;5.47;;;7.90;99.90;;;;;;5007876;28;20430;-76
2022/11/25 05:46:45;;;;;;;10.68;5.22;;;7.90;99.90;;;;;;5002566;28;20447;-77
2022/11/25 05:49:12;;;;;;;10.27;5.30;;;7.90;99.90;;;;;;5005308;28;20935;-76
2022/11/25 05:51:40;;;;;;;8.60;5.27;;;7.90;99.90;;;;;;5018876;28;20414;-76
2022/11/25 05:54:07;;;;;;;11.73;6.23;;;7.90;99.90;;;;;;5012156;28;20878;-77
2022/11/25 05:56:35;;;;;;;9.07;4.82;;;7.90;99.90;;;;;;5000442;28;20759;-77
2022/11/25 05:59:03;;;;;;;8.55;4.43;;;7.80;99.90;;;;;;4996512;28;20434;-77
2022/11/25 06:01:31;;;;;;;9.05;5.10;;;7.80;99.90;;;;;;4999641;28;20441;-75
2022/11/25 06:04:00;;;;;;;9.47;5.10;;;7.80;99.90;;;;;;4993560;28;20456;-75
2022/11/25 06:06:27;;;;;;;11.00;5.03;;;7.80;99.90;;;;;;5000360;28;21064;-75
2022/11/25 06:08:55;;;;;;;11.27;5.40;;;7.80;99.90;;;;;;5000831;28;20451;-75
2022/11/25 06:11:24;;;;;;;9.25;5.30;;;7.70;99.90;;;;;;5002677;28;20492;-76
2022/11/25 06:13:51;;;;;;;9.77;5.00;;;7.70;99.90;;;;;;4995375;28;20881;-75
2022/11/25 06:16:19;;;;;;;11.70;5.40;;;7.70;99.90;;;;;;4997099;28;20799;-75
2022/11/25 06:18:46;;;;;;;11.32;5.40;;;7.70;99.90;;;;;;4988260;28;20470;-75
2022/11/25 06:21:14;;;;;;;10.73;5.60;;;7.70;99.90;;;;;;5003408;28;20561;-76
2022/11/25 06:23:40;;;;;;;11.20;5.70;;;7.70;99.90;;;;;;5003162;28;20433;-79
2022/11/25 06:26:12;;;;;;;8.75;5.85;;;7.70;99.90;;;;;;5005866;28;20444;-78
2022/11/25 06:28:39;;;;;;;8.23;5.45;;;7.70;99.90;;;;;;5012228;28;20448;-76
2022/11/25 06:31:07;;;;;;;9.27;5.70;;;7.70;99.90;;;;;;5015117;28;20454;-75
2022/11/25 06:33:34;;;;;;;8.38;5.15;;;7.70;99.90;;;;;;4998595;28;20446;-75
2022/11/25 06:36:03;;;;;;;11.00;5.90;;;7.70;99.90;;;;;;5006913;28;20895;-75
2022/11/25 06:38:30;;;;;;;9.20;5.60;;;7.70;99.90;;;;;;5010156;28;20494;-73
2022/11/25 06:41:00;;;;;;;9.55;5.95;;;7.60;99.90;;;;;;4999912;28;20500;-73
2022/11/25 06:43:28;;;;;;;9.80;5.90;;;7.60;99.90;;;;;;5005732;28;20430;-73
2022/11/25 06:45:55;;;;;;;12.32;6.28;;;7.60;99.90;;;;;;5004005;28;20430;-74
2022/11/25 06:48:21;;;;;;;11.95;6.50;;;7.60;99.90;;;;;;5003503;28;20436;-73
2022/11/25 06:50:56;;;;;;;7.97;5.60;;;7.60;99.90;;;;;;5006651;28;20782;-74
2022/11/25 06:53:23;;;;;;;10.05;6.05;;;7.60;99.90;;;;;;5000880;28;20474;-74
2022/11/25 06:55:50;;;;;;;10.25;5.57;;;7.60;99.90;;;;;;5008384;28;20447;-74
2022/11/25 06:58:16;;;;;;;9.38;6.65;;;7.60;99.90;;;;;;5008814;28;20490;-75
2022/11/25 07:00:45;;;;;;;9.70;6.13;;;7.60;99.90;;;;;;5006986;28;20463;-74
2022/11/25 07:03:11;;;;;;;11.95;6.65;;;7.60;99.90;;;;;;5017492;28;20865;-74
2022/11/25 07:05:38;;;;;;;9.93;5.95;;;7.60;99.90;;;;;;5008108;28;20427;-74
2022/11/25 07:08:05;;;;;;;8.95;6.13;;;7.70;99.90;;;;;;5002515;28;20431;-74
2022/11/25 07:10:34;;;;;;;8.67;6.10;;;7.70;99.90;;;;;;4991946;28;20477;-74
2022/11/25 07:13:00;;;;;;;16.05;6.60;;;7.70;99.90;;;;;;4998041;28;20795;-74
2022/11/25 07:15:27;;;;;;;10.05;6.18;;;7.70;99.90;;;;;;4999159;28;20913;-74
2022/11/25 07:17:56;;;;;;;10.73;6.20;;;7.70;99.90;;;;;;4998106;28;20976;-75
2022/11/25 07:20:26;;;;;;;12.80;5.90;;;7.70;99.90;;;;;;5001941;28;20432;-74
2022/11/25 07:22:53;;;;;;;10.93;6.38;;;7.60;99.90;;;;;;4991605;28;21047;-74
2022/11/25 07:25:20;;;;;;;12.30;6.38;;;7.60;99.90;;;;;;4996984;28;20426;-75
2022/11/25 07:27:46;;;;;;;10.25;6.28;;;7.60;99.90;;;;;;4989238;28;20495;-74
2022/11/25 07:30:14;;;;;;;9.57;6.22;;;7.50;99.90;;;;;;5003202;28;20777;-74
2022/11/25 07:32:40;;;;;;;10.65;6.10;;;7.50;99.90;;;;;;5024776;22;20434;-71
2022/11/25 07:35:09;;;;;;;11.40;6.10;;;7.50;99.90;;;;;;5028959;28;20450;-70
2022/11/25 07:37:36;;;;;;;11.63;5.72;;;7.50;99.90;;;;;;5030509;28;20442;-69
2022/11/25 07:40:02;;;;;;;13.70;6.83;;;7.50;99.90;;;;;;5021648;28;20468;-72
2022/11/25 07:42:29;;;;;;;16.50;6.63;;;7.50;99.90;;;;;;5027396;28;20435;-70
2022/11/25 07:44:56;;;;;;;9.73;5.70;;;7.40;99.90;;;;;;5029342;28;20447;-69
2022/11/25 07:47:24;;;;;;;14.13;6.55;;;7.40;99.90;;;;;;5029296;28;20788;-70
2022/11/25 07:49:51;;;;;;;9.23;6.10;;;7.40;99.90;;;;;;5020245;28;20428;-72
2022/11/25 07:52:19;;;;;;;10.20;6.10;;;7.50;99.90;;;;;;5026269;28;20427;-70
2022/11/25 07:54:46;;;;;;;9.60;6.00;;;7.50;99.90;;;;;;5022830;28;20438;-69
2022/11/25 07:57:13;;;;;;;9.15;6.10;;;7.60;99.90;;;;;;5022614;28;20442;-70
2022/11/25 07:59:40;;;;;;;11.18;6.43;;;7.70;99.90;;;;;;5022318;28;20419;-70
2022/11/25 08:02:09;;;;;;;8.70;6.35;;;7.80;99.90;;;;;;5026790;28;20422;-70
2022/11/25 08:04:37;;;;;;;12.85;6.30;;;8.00;99.90;;;;;;5029192;28;20411;-70
2022/11/25 08:07:03;;;;;;;7.93;5.97;;;8.20;99.90;;;;;;5028207;28;20435;-69
2022/11/25 08:09:31;;;;;;;8.98;5.40;;;8.30;99.90;;;;;;5027662;28;20913;-69
2022/11/25 08:11:58;;;;;;;7.75;5.30;;;8.30;99.90;;;;;;5027766;28;20430;-69
2022/11/25 08:14:25;;;;;;;11.10;5.97;;;8.30;99.90;;;;;;5027109;28;20426;-69
2022/11/25 08:16:52;;;;;;;9.85;5.90;;;8.20;99.90;;;;;;5026758;28;20434;-69
2022/11/25 08:19:19;;;;;;;10.10;6.10;;;8.20;99.90;;;;;;5026183;28;20415;-68
2022/11/25 08:21:47;;;;;;;9.30;6.57;;;8.30;99.90;;;;;;5017193;28;20427;-69
2022/11/25 08:24:16;;;;;;;10.73;5.20;;;8.50;99.90;;;;;;5028552;28;20419;-69
2022/11/25 08:26:45;;;;;;;10.35;5.40;;;8.60;99.90;;;;;;5026674;28;20438;-70
2022/11/25 08:29:14;;;;;;;9.45;5.50;;;8.80;99.90;;;;;;5025153;28;20788;-70
2022/11/25 08:31:41;;;;;;;8.60;5.40;;;8.90;99.90;;;;;;5028609;28;20419;-68
2022/11/25 08:34:08;;;;;;;6.50;5.30;;;9.10;99.90;;;;;;5027524;28;20925;-69
2022/11/25 08:36:36;;;;;;;8.50;5.90;;;9.10;99.90;;;;;;5023211;28;20932;-68
2022/11/25 08:39:06;;;;;;;8.30;5.70;;;9.20;99.90;;;;;;5026347;28;20425;-69
2022/11/25 08:41:35;;;;;;;7.18;5.45;;;9.30;99.90;;;;;;5022991;28;20437;-68
2022/11/25 08:44:07;;;;;;;6.80;5.10;;;9.50;99.40;;;;;;5020057;28;20442;-69
2022/11/25 08:46:38;;;;;;;8.45;5.75;;;9.60;99.30;;;;;;5017865;28;21351;-67
2022/11/25 08:49:07;;;;;;;7.75;5.50;;;9.80;99.30;;;;;;5029485;28;20514;-68
2022/11/25 08:51:35;;;;;;;10.27;5.47;;;10.00;99.30;;;;;;5025777;28;20427;-69
2022/11/25 08:54:03;;;;;;;6.38;4.50;;;10.30;99.20;;;;;;5028662;28;20439;-67
2022/11/25 08:56:30;;;;;;;5.57;4.18;;;10.50;98.20;;;;;;5026189;28;20434;-68
2022/11/25 08:58:58;;;;;;;5.55;4.07;;;10.70;96.70;;;;;;5021131;28;20791;-69
2022/11/25 09:01:27;;;;;;;7.57;5.10;;;10.70;95.80;;;;;;5027864;28;20433;-67
2022/11/25 09:03:56;;;;;;;5.93;4.00;;;10.80;95.70;;;;;;5020297;28;20427;-68
2022/11/25 09:06:23;;;;;;;6.50;3.85;;;10.90;95.20;;;;;;5019684;28;20853;-69
2022/11/25 09:08:50;;;;;;;6.63;4.65;;;11.10;94.80;;;;;;5018942;28;20438;-69
2022/11/25 09:11:17;;;;;;;6.13;3.40;;;11.30;94.70;;;;;;5023714;28;20433;-70
2022/11/25 09:13:44;;;;;;;5.97;4.40;;;11.60;93.90;;;;;;5022384;28;20430;-69
2022/11/25 09:16:11;;;;;;;7.10;3.80;;;11.80;92.70;;;;;;5020202;28;20431;-67
2022/11/25 09:18:39;;;;;;;6.45;3.60;;;12.00;92.00;;;;;;5023224;28;20435;-70
2022/11/25 09:21:10;;;;;;;4.70;3.30;;;12.20;91.20;;;;;;5025205;28;20439;-67
2022/11/25 09:23:37;;;;;;;5.10;3.45;;;12.30;90.90;;;;;;5024740;28;20925;-67
2022/11/25 09:26:07;;;;;;;5.43;3.13;;;12.30;89.80;;;;;;5021630;28;20431;-77
2022/11/25 09:28:35;;;;;;;4.82;3.33;;;12.40;89.60;;;;;;5039814;28;20439;-76
2022/11/25 09:31:07;;;;;;;6.38;3.20;;;12.50;90.10;;;;;;5025522;28;20463;-68
2022/11/25 09:33:33;;;;;;;4.80;3.50;;;12.70;90.10;;;;;;5022301;28;20446;-67
2022/11/25 09:36:02;;;;;;;4.97;3.20;;;12.90;89.40;;;;;;5015845;28;20450;-66
2022/11/25 09:38:29;;;;;;;5.07;3.10;;;13.20;86.30;;;;;;5020846;28;20430;-67
2022/11/25 09:41:00;;;;;;;4.82;2.80;;;13.30;85.70;;;;;;5022651;28;20859;-66
2022/11/25 09:46:41;;;;;;;4.43;3.10;;;13.40;84.00;;;;;;5025384;28;20476;-69
2022/11/25 09:49:20;;;;;;;4.05;2.78;;;13.30;83.40;;;;;;5026011;28;20458;-68
2022/11/25 09:52:03;;;;;;;4.22;2.80;;;13.30;84.00;;;;;;5019503;28;20941;-67
2022/11/25 09:54:35;;;;;;;4.80;2.70;;;13.40;84.40;;;;;;5021832;28;20434;-68
2022/11/25 09:57:12;;;;;;;5.82;2.70;;;13.70;83.30;;;;;;5023537;28;20515;-67
2022/11/25 09:59:42;;;;;;;5.05;2.78;;;13.90;81.00;;;;;;5021879;28;20431;-66
2022/11/25 10:02:16;;;;;;;5.30;2.60;;;13.90;79.90;;;;;;5020105;28;20437;-67
2022/11/25 10:04:47;;;;;;;4.63;2.35;;;14.20;79.80;;;;;;5027028;28;20466;-66
2022/11/25 10:07:21;;;;;;;5.40;2.20;;;14.40;76.80;;;;;;5011942;28;20431;-67
2022/11/25 10:09:47;;;;;;;5.35;3.00;;;14.50;77.50;;;;;;5032380;28;20435;-65
2022/11/25 10:12:24;;;;;;;5.93;2.70;;;14.50;73.60;;;;;;5031795;28;20430;-66
2022/11/25 10:14:55;;;;;;;5.35;2.80;;;14.40;74.10;;;;;;5029155;28;20423;-66
2022/11/25 10:17:30;;;;;;;5.63;2.70;;;14.20;74.50;;;;;;5025689;28;20434;-66
2022/11/25 10:20:04;;;;;;;4.93;2.85;;;14.30;74.50;;;;;;5026530;28;20939;-67
2022/11/25 10:22:34;;;;;;;6.33;2.80;;;14.30;74.40;;;;;;5016413;28;20435;-68
2022/11/25 10:25:06;;;;;;;4.55;2.40;;;14.40;73.20;;;;;;5020854;28;20446;-67
2022/11/25 10:27:43;;;;;;;5.72;3.00;;;14.40;73.20;;;;;;5029410;28;20423;-65
2022/11/25 10:30:16;;;;;;;5.82;2.50;;;14.40;72.80;;;;;;5016287;28;20430;-64
2022/11/25 10:32:47;;;;;;;6.18;3.25;;;14.50;74.00;;;;;;5022198;28;20427;-67
2022/11/25 10:35:23;;;;;;;5.00;2.43;;;14.80;72.00;;;;;;5027432;28;20430;-66
2022/11/25 10:37:56;;;;;;;7.38;2.80;;;14.60;70.90;;;;;;5024806;28;20414;-67
2022/11/25 10:40:22;;;;;;;6.07;2.65;;;14.30;72.80;;;;;;5039931;28;20453;-66
2022/11/25 10:42:49;;;;;;;5.47;2.90;;;14.30;74.10;;;;;;5040008;28;20420;-67
2022/11/25 10:45:16;;;;;;;5.40;2.50;;;14.40;72.10;;;;;;5027578;28;20432;-66
2022/11/25 10:48:17;;;;;;;4.33;2.10;;;14.30;71.30;;;;;;5023733;28;20439;-66
2022/11/25 10:50:57;;;;;;;6.38;2.72;;;14.30;71.10;;;;;;5041376;28;20430;-66
2022/11/25 10:53:28;;;;;;;5.72;2.35;;;14.10;71.30;;;;;;5032087;28;20801;-66
2022/11/25 10:56:02;;;;;;;7.80;3.00;;;14.00;72.10;;;;;;5014683;28;20437;-67
2022/11/25 10:58:34;;;;;;;8.88;3.30;;;13.80;72.60;;;;;;5020385;28;20432;-67
2022/11/25 11:01:14;;;;;;;5.10;2.40;;;13.50;74.10;;;;;;5024643;28;20809;-67
2022/11/25 11:03:43;;;;;;;6.40;2.70;;;13.30;74.90;;;;;;5028122;28;20453;-67
2022/11/25 11:06:29;;;;;;;5.95;2.60;;;13.00;76.00;;;;;;5029909;28;20431;-66
2022/11/25 11:08:58;;;;;;;5.72;2.60;;;12.90;77.00;;;;;;5027394;28;21035;-65
2022/11/25 11:11:25;;;;;;;3.90;2.00;;;12.80;77.50;;;;;;5023423;28;20433;-65
2022/11/25 11:13:59;;;;;;;7.03;2.80;;;12.70;77.40;;;;;;5025339;28;20437;-66
2022/11/25 11:16:33;;;;;;;6.18;2.75;;;12.70;78.20;;;;;;5020782;28;20439;-65
2022/11/25 11:19:01;;;;;;;7.47;3.17;;;12.60;78.30;;;;;;5025159;28;20423;-65
2022/11/25 11:21:31;;;;;;;8.48;2.70;;;12.60;78.00;;;;;;5028065;28;20489;-67
2022/11/25 11:24:00;;;;;;;6.93;2.90;;;12.50;78.60;;;;;;5023550;28;20806;-65
2022/11/25 11:26:28;;;;;;;8.30;2.50;;;12.50;78.00;;;;;;5021300;28;20438;-66
2022/11/25 11:29:01;;;;;;;6.85;2.90;;;12.50;78.90;;;;;;5023615;28;20864;-67
2022/11/25 11:31:33;;;;;;;6.90;2.70;;;12.60;79.80;;;;;;5024761;28;20600;-67
2022/11/25 11:34:18;;;;;;;6.53;2.60;;;12.60;78.30;;;;;;5027248;28;20414;-66
2022/11/25 11:36:56;;;;;;;7.40;2.90;;;12.60;77.40;;;;;;5028610;28;20454;-66
2022/11/25 11:39:47;;;;;;;7.80;3.13;;;12.50;78.70;;;;;;5024346;28;20428;-65
2022/11/25 11:42:25;;;;;;;8.55;3.03;;;12.40;79.20;;;;;;5025963;28;20442;-64
2022/11/25 11:45:05;;;;;;;9.73;3.90;;;12.20;80.40;;;;;;5028069;28;20542;-65
2022/11/25 11:47:39;;;;;;;11.82;3.83;;;12.30;80.30;;;;;;5024091;28;20450;-65
2022/11/25 11:50:25;;;;;;;7.32;2.78;;;12.20;80.40;;;;;;5019795;28;20435;-65
2022/11/25 11:52:58;;;;;;;7.90;4.00;;;12.20;80.50;;;;;;5021763;28;20429;-63
2022/11/25 11:55:51;;;;;;;10.45;3.88;;;12.10;80.90;;;;;;5026017;28;20438;-67
2022/11/25 11:58:30;;;;;;;9.68;3.60;;;12.10;81.30;;;;;;5021703;28;20512;-66
2022/11/25 12:01:11;;;;;;;10.80;4.20;;;12.20;80.60;;;;;;5017953;28;20446;-65
2022/11/25 12:03:41;;;;;;;14.73;4.05;;;12.30;80.40;;;;;;5025628;28;20429;-67
2022/11/25 12:06:10;;;;;;;12.23;4.10;;;12.30;80.20;;;;;;5021708;28;20434;-65
2022/11/25 12:08:47;;;;;;;10.13;4.40;;;12.40;80.30;;;;;;5022552;28;20434;-65
2022/11/25 12:11:20;;;;;;;9.88;3.65;;;12.50;80.30;;;;;;5019854;28;20431;-65
2022/11/25 12:13:53;;;;;;;9.75;3.70;;;12.90;79.10;;;;;;5025478;28;20431;-65
2022/11/25 12:16:29;;;;;;;6.97;3.10;;;13.30;77.10;;;;;;5023674;28;20434;-64
2022/11/25 12:19:02;;;;;;;7.80;3.00;;;14.00;73.60;;;;;;5033240;28;20431;-63
2022/11/25 12:21:39;;;;;;;8.65;3.20;;;14.40;72.40;;;;;;5031748;28;20430;-65
2022/11/25 12:24:14;;;;;;;8.15;3.45;;;14.80;70.50;;;;;;5018512;28;20443;-69
2022/11/25 12:26:48;;;;;;;8.70;2.85;;;15.10;70.40;;;;;;5023078;28;20441;-64
2022/11/25 12:29:24;;;;;;;7.57;2.93;;;15.50;67.20;;;;;;5021767;28;20450;-65
2022/11/25 12:31:56;;;;;;;8.90;2.90;;;15.70;64.80;;;;;;5020536;28;20470;-64
2022/11/25 12:34:30;;;;;;;8.37;3.00;;;15.80;63.80;;;;;;5027383;28;20427;-64
2022/11/25 12:37:05;;;;;;;7.23;2.23;;;15.70;63.40;;;;;;5015415;28;20518;-64
2022/11/25 12:39:39;;;;;;;6.28;2.80;;;15.60;62.10;;;;;;5020249;28;20439;-65
2022/11/25 12:42:15;;;;;;;6.40;2.70;;;15.30;63.50;;;;;;5028771;28;20410;-65
2022/11/25 12:44:53;;;;;;;6.88;2.40;;;14.80;65.10;;;;;;5030345;28;20423;-65
2022/11/25 12:47:20;;;;;;;6.28;2.80;;;14.90;66.90;;;;;;5028098;28;20431;-65
2022/11/25 12:49:50;;;;;;;9.07;2.87;;;15.00;65.00;;;;;;5026845;28;20438;-65
2022/11/25 12:52:46;;;;;;;8.20;2.80;;;15.00;64.80;;;;;;5019482;28;20438;-64
2022/11/25 12:55:17;;;;;;;6.88;2.83;;;14.80;65.80;;;;;;5015081;28;20447;-66
2022/11/25 12:58:27;;;;;;;7.70;2.47;;;14.80;65.80;;;;;;5025003;28;20957;-66
2022/11/25 13:01:20;;;;;;;8.98;3.05;;;15.00;64.70;;;;;;5021894;28;20432;-65
2022/11/25 13:04:28;;;;;;;8.98;3.20;;;15.20;65.70;;;;;;5008688;28;20925;-65
2022/11/25 13:07:27;;;;;;;8.95;2.90;;;15.40;63.90;;;;;;4975581;28;20953;-65
2022/11/25 13:10:19;;;;;;;7.07;2.55;;;15.60;63.60;;;;;;5021597;28;20437;-65
2022/11/25 13:12:57;;;;;;;7.68;2.50;;;15.90;61.80;;;;;;5023289;28;20418;-64
2022/11/25 13:15:29;;;;;;;6.85;2.72;;;15.90;60.70;;;;;;5021997;28;20462;-65